Time;durP1;ratioP1;P1;durP2;ratioP2;P2;SDS_P1;SDS_P2;PMS_P1;PMS_P2;Temp;Humidity;BMP_temperature;BMP_pressure;BME280_temperature;BME280_humidity;BME280_pressure;Samples;Min_cycle;Max_cycle;Signal;HPM_P1;HPM_P2
2024/02/19 00:01:58;;;;;;;20.77;11.50;;;;;;;6.44;100.00;101714.50;4991778;28;20053;-70
2024/02/19 00:04:24;;;;;;;22.30;12.35;;;;;;;6.35;100.00;101699.34;4990884;28;20475;-71
2024/02/19 00:06:51;;;;;;;21.15;11.77;;;;;;;6.39;100.00;101687.63;4990924;28;20038;-70
2024/02/19 00:09:19;;;;;;;22.73;11.90;;;;;;;6.58;100.00;101710.38;4990982;28;20475;-70
2024/02/19 00:11:45;;;;;;;21.13;12.70;;;;;;;6.63;100.00;101709.06;4990503;28;20030;-71
2024/02/19 00:14:10;;;;;;;23.55;13.00;;;;;;;6.62;100.00;101715.84;4991914;28;20033;-70
2024/02/19 00:16:36;;;;;;;24.52;12.70;;;;;;;6.57;100.00;101713.75;4991259;28;20047;-70
2024/02/19 00:19:01;;;;;;;22.85;12.60;;;;;;;6.49;100.00;101718.31;4990774;28;20038;-70
2024/02/19 00:21:27;;;;;;;20.88;12.10;;;;;;;6.43;100.00;101710.16;4990929;28;20038;-69
2024/02/19 00:23:52;;;;;;;22.45;13.95;;;;;;;6.44;100.00;101714.50;4990712;28;20030;-70
2024/02/19 00:26:18;;;;;;;24.90;13.43;;;;;;;6.41;100.00;101707.47;4990916;28;20026;-68
2024/02/19 00:28:44;;;;;;;25.13;13.57;;;;;;;6.37;100.00;101686.63;4989946;28;20434;-70
2024/02/19 00:31:13;;;;;;;23.30;12.40;;;;;;;6.59;100.00;101707.97;4981085;28;20066;-70
2024/02/19 00:33:38;;;;;;;24.33;12.60;;;;;;;6.64;100.00;101715.97;4986657;28;20165;-72
2024/02/19 00:36:07;;;;;;;24.48;13.13;;;;;;;6.46;100.00;101679.59;4991357;28;20109;-71
2024/02/19 00:38:33;;;;;;;25.45;14.52;;;;;;;6.69;100.00;101708.59;4990702;28;20056;-70
2024/02/19 00:40:59;;;;;;;24.95;14.80;;;;;;;6.28;100.00;101631.31;4987811;28;20034;-69
2024/02/19 00:43:25;;;;;;;22.85;14.15;;;;;;;6.80;100.00;101707.72;4990446;28;20034;-69
2024/02/19 00:45:51;;;;;;;22.92;13.30;;;;;;;6.82;100.00;101706.16;4990111;28;20585;-70
2024/02/19 00:48:17;;;;;;;23.80;12.55;;;;;;;6.83;100.00;101702.81;4991059;28;20034;-70
2024/02/19 00:50:43;;;;;;;24.30;13.98;;;;;;;6.85;100.00;101713.19;4990506;28;20502;-70
2024/02/19 00:53:08;;;;;;;24.13;13.50;;;;;;;6.82;100.00;101705.25;4990235;28;20066;-69
2024/02/19 00:55:34;;;;;;;23.83;13.15;;;;;;;6.67;100.00;101687.97;4958412;28;20038;-70
2024/02/19 00:57:59;;;;;;;22.65;13.65;;;;;;;6.60;100.00;101685.75;4979791;28;20121;-69
2024/02/19 01:00:26;;;;;;;22.25;13.80;;;;;;;6.48;100.00;101703.72;4990101;28;20030;-69
2024/02/19 01:02:52;;;;;;;24.33;14.07;;;;;;;6.25;100.00;101682.38;4989869;28;20099;-69
2024/02/19 01:05:19;;;;;;;22.15;13.75;;;;;;;6.35;100.00;101693.31;4990452;28;20054;-69
2024/02/19 01:07:45;;;;;;;40.63;19.67;;;;;;;6.36;100.00;101690.88;4990349;28;20030;-72
2024/02/19 01:10:10;;;;;;;36.63;16.30;;;;;;;6.20;100.00;101676.00;4976025;28;20428;-70
2024/02/19 01:12:37;;;;;;;35.20;17.85;;;;;;;5.98;100.00;101641.09;4990303;28;20025;-70
2024/02/19 01:15:03;;;;;;;38.38;18.45;;;;;;;6.29;100.00;101697.22;4990148;28;20030;-70
2024/02/19 01:17:29;;;;;;;48.60;22.65;;;;;;;6.29;100.00;101697.22;4989536;28;20058;-69
2024/02/19 01:19:57;;;;;;;42.08;20.67;;;;;;;6.21;100.00;101690.63;4989800;28;20402;-69
2024/02/19 01:22:24;;;;;;;32.42;16.25;;;;;;;6.17;100.00;101674.88;4990290;28;20037;-70
2024/02/19 01:24:50;;;;;;;26.48;14.07;;;;;;;6.26;100.00;101684.16;4989546;28;20486;-70
2024/02/19 01:27:15;;;;;;;20.02;12.45;;;;;;;6.22;100.00;101678.69;4977020;28;20026;-69
2024/02/19 01:29:41;;;;;;;27.55;14.77;;;;;;;5.93;100.00;101651.75;4989862;28;20045;-69
2024/02/19 01:32:06;;;;;;;29.10;14.50;;;;;;;6.01;100.00;101675.41;4989554;28;20410;-70
2024/02/19 01:34:32;;;;;;;38.92;17.30;;;;;;;5.98;100.00;101679.56;4989684;28;20157;-69
2024/02/19 01:36:57;;;;;;;53.33;21.80;;;;;;;5.95;100.00;101679.28;4989421;28;20418;-70
2024/02/19 01:39:23;;;;;;;44.88;18.73;;;;;;;6.04;100.00;101673.09;4988335;28;20038;-68
2024/02/19 01:41:49;;;;;;;38.58;18.08;;;;;;;6.06;100.00;101672.44;4990523;28;20421;-69
2024/02/19 01:44:14;;;;;;;26.00;14.07;;;;;;;6.01;100.00;101676.31;4956071;28;20047;-69
2024/02/19 01:46:42;;;;;;;31.58;15.30;;;;;;;5.83;100.00;101653.63;4955992;28;20039;-69
2024/02/19 01:49:10;;;;;;;34.40;16.90;;;;;;;5.95;100.00;101670.69;4959774;28;20178;-69
2024/02/19 01:51:37;;;;;;;26.25;14.45;;;;;;;5.71;100.00;101636.41;4954829;28;20059;-72
2024/02/19 01:54:04;;;;;;;34.53;17.40;;;;;;;5.57;100.00;101604.63;4959239;28;20050;-69
2024/02/19 01:56:30;;;;;;;23.25;12.77;;;;;;;5.46;100.00;101585.94;4959406;28;20511;-69
2024/02/19 01:58:56;;;;;;;23.40;13.60;;;;;;;5.57;100.00;101591.84;4955268;28;20051;-69
2024/02/19 02:01:23;;;;;;;25.88;15.50;;;;;;;5.48;100.00;101568.97;4959334;28;20030;-68
2024/02/19 02:03:51;;;;;;;32.17;18.38;;;;;;;5.98;100.00;101653.91;4959259;28;20044;-69
2024/02/19 02:06:16;;;;;;;29.77;16.25;;;;;;;5.97;100.00;101658.91;4957277;28;20037;-69
2024/02/19 02:08:42;;;;;;;35.13;17.33;;;;;;;5.99;100.00;101648.03;4958053;28;20113;-71
2024/02/19 02:11:07;;;;;;;35.35;18.05;;;;;;;6.05;100.00;101651.81;4959547;28;20031;-68
2024/02/19 02:13:53;;;;;;;30.05;16.15;;;;;;;6.04;100.00;101653.47;4929305;29;20534;-69
2024/02/19 02:16:25;;;;;;;24.30;14.10;;;;;;;5.98;100.00;101653.91;4947071;29;20079;-69
2024/02/19 02:18:54;;;;;;;23.27;12.93;;;;;;;5.98;100.00;101651.34;4948475;29;20055;-69
2024/02/19 02:21:20;;;;;;;25.93;13.90;;;;;;;6.02;100.00;101644.78;4948719;29;20035;-69
2024/02/19 02:23:46;;;;;;;22.80;13.35;;;;;;;6.04;100.00;101643.22;4948563;29;20169;-69
2024/02/19 02:26:12;;;;;;;24.80;14.13;;;;;;;5.65;100.00;101566.00;4948940;29;20573;-69
2024/02/19 02:28:37;;;;;;;21.85;13.18;;;;;;;6.15;100.00;101641.44;4948452;29;20126;-69
2024/02/19 02:31:03;;;;;;;22.92;13.27;;;;;;;6.11;100.00;101639.44;4948456;29;20035;-69
2024/02/19 02:33:29;;;;;;;20.23;12.52;;;;;;;6.09;100.00;101649.59;4948332;29;20182;-69
2024/02/19 02:35:54;;;;;;;21.00;12.43;;;;;;;5.64;100.00;101583.84;4933300;29;20046;-70
2024/02/19 02:38:20;;;;;;;24.48;13.68;;;;;;;6.03;100.00;101638.88;4948405;29;20039;-69
2024/02/19 02:40:45;;;;;;;21.75;13.23;;;;;;;5.46;100.00;101555.19;4948379;29;20491;-69
2024/02/19 02:43:11;;;;;;;23.38;13.57;;;;;;;5.92;100.00;101637.13;4948684;29;20043;-69
2024/02/19 02:45:36;;;;;;;26.65;14.23;;;;;;;5.84;100.00;101649.38;4981167;28;20395;-69
2024/02/19 02:48:02;;;;;;;25.77;14.02;;;;;;;5.80;100.00;101653.38;4989160;28;20108;-69
2024/02/19 02:50:28;;;;;;;19.52;12.50;;;;;;;5.78;100.00;101651.47;4989486;28;20057;-69
2024/02/19 02:52:53;;;;;;;26.15;14.27;;;;;;;5.77;100.00;101649.69;4992569;28;20042;-69
2024/02/19 02:55:19;;;;;;;26.02;12.75;;;;;;;5.71;100.00;101660.38;4992974;28;20030;-69
2024/02/19 02:57:44;;;;;;;24.17;14.43;;;;;;;5.31;100.00;101591.66;4992914;28;20045;-69
2024/02/19 03:00:11;;;;;;;27.00;14.07;;;;;;;5.31;100.00;101595.91;4992731;28;20034;-69
2024/02/19 03:02:36;;;;;;;23.63;14.00;;;;;;;5.50;100.00;101624.66;4992697;28;20114;-69
2024/02/19 03:05:02;;;;;;;27.17;14.48;;;;;;;5.46;100.00;101614.09;4992893;28;20022;-69
2024/02/19 03:07:28;;;;;;;23.55;14.15;;;;;;;5.63;100.00;101653.78;4992805;28;20026;-69
2024/02/19 03:09:53;;;;;;;28.45;15.07;;;;;;;5.64;100.00;101651.31;4992719;28;20101;-70
2024/02/19 03:12:19;;;;;;;23.73;13.90;;;;;;;5.53;100.00;101652.19;4992583;28;20560;-71
2024/02/19 03:14:44;;;;;;;25.25;14.50;;;;;;;5.51;100.00;101659.75;4985775;28;20041;-69
2024/02/19 03:17:10;;;;;;;23.90;13.65;;;;;;;5.47;100.00;101652.63;4992116;28;20080;-69
2024/02/19 03:19:36;;;;;;;27.90;14.70;;;;;;;5.40;100.00;101640.13;4992395;28;20050;-69
2024/02/19 03:22:05;;;;;;;26.02;14.55;;;;;;;5.41;100.00;101631.66;4992305;28;20473;-69
2024/02/19 03:24:31;;;;;;;27.70;14.95;;;;;;;5.43;100.00;101634.34;4967836;28;20502;-70
2024/02/19 03:26:58;;;;;;;25.42;14.38;;;;;;;5.44;100.00;101642.13;4992271;28;20033;-70
2024/02/19 03:29:23;;;;;;;27.88;15.25;;;;;;;5.51;100.00;101641.81;4992215;28;20022;-69
2024/02/19 03:31:49;;;;;;;25.35;15.27;;;;;;;5.46;100.00;101614.09;4992417;28;20041;-69
2024/02/19 03:34:15;;;;;;;25.10;13.32;;;;;;;5.49;100.00;101635.69;4992418;28;20042;-69
2024/02/19 03:36:50;;;;;;;26.23;15.18;;;;;;;5.54;100.00;101646.28;4992734;28;20048;-69
2024/02/19 03:39:17;;;;;;;25.52;14.88;;;;;;;5.37;100.00;101639.91;4991781;28;20112;-69
2024/02/19 03:41:42;;;;;;;27.35;14.20;;;;;;;5.12;100.00;101626.84;4992058;28;20026;-68
2024/02/19 03:44:08;;;;;;;23.67;13.88;;;;;;;4.58;100.00;101558.72;4992157;28;20387;-69
2024/02/19 03:46:33;;;;;;;24.35;15.85;;;;;;;5.00;100.00;101630.25;4992037;28;20488;-69
2024/02/19 03:48:59;;;;;;;29.77;16.45;;;;;;;5.22;100.00;101652.41;4992014;28;20030;-69
2024/02/19 03:51:24;;;;;;;25.73;15.43;;;;;;;5.31;100.00;101642.88;4992050;28;20034;-69
2024/02/19 03:53:50;;;;;;;25.10;14.55;;;;;;;5.37;100.00;101649.22;4992040;28;20034;-69
2024/02/19 03:56:17;;;;;;;28.60;15.02;;;;;;;5.43;100.00;101637.81;4991927;28;20460;-70
2024/02/19 03:58:43;;;;;;;26.60;14.55;;;;;;;5.59;100.00;101646.66;4989798;28;20046;-68
2024/02/19 04:01:08;;;;;;;25.85;14.20;;;;;;;5.54;100.00;101630.91;4991626;28;20036;-69
2024/02/19 04:03:35;;;;;;;26.10;14.95;;;;;;;5.66;100.00;101644.66;4992538;28;20084;-69
2024/02/19 04:06:01;;;;;;;23.27;14.68;;;;;;;5.63;100.00;101634.19;4991426;28;20026;-70
2024/02/19 04:08:26;;;;;;;28.65;15.98;;;;;;;5.73;100.00;101637.44;4991906;28;20445;-68
2024/02/19 04:10:52;;;;;;;27.50;15.60;;;;;;;5.81;100.00;101628.66;4991377;28;20474;-69
2024/02/19 04:13:17;;;;;;;27.77;14.40;;;;;;;5.37;100.00;101541.69;4991563;28;20042;-70
2024/02/19 04:15:43;;;;;;;25.98;14.73;;;;;;;5.88;100.00;101630.00;4991202;28;20399;-69
2024/02/19 04:18:09;;;;;;;27.90;15.45;;;;;;;5.58;100.00;101573.13;4991282;28;20077;-69
2024/02/19 04:20:34;;;;;;;26.48;15.02;;;;;;;5.97;100.00;101633.28;4991440;28;20034;-69
2024/02/19 04:23:00;;;;;;;26.23;14.65;;;;;;;5.93;100.00;101626.13;4992008;28;20627;-69
2024/02/19 04:25:25;;;;;;;28.13;15.88;;;;;;;5.95;100.00;101637.38;4985722;28;20169;-69
2024/02/19 04:27:52;;;;;;;27.42;15.18;;;;;;;5.98;100.00;101630.84;4990856;28;20099;-69
2024/02/19 04:30:17;;;;;;;26.30;14.48;;;;;;;5.96;100.00;101631.47;4991305;28;20085;-68
2024/02/19 04:32:43;;;;;;;27.52;14.27;;;;;;;5.91;100.00;101631.13;4990737;28;20038;-68
2024/02/19 04:35:09;;;;;;;26.92;14.88;;;;;;;5.91;100.00;101637.94;4990919;28;20041;-69
2024/02/19 04:37:34;;;;;;;27.27;15.23;;;;;;;5.81;100.00;101603.03;4991427;28;20045;-69
2024/02/19 04:40:00;;;;;;;27.20;14.15;;;;;;;6.04;100.00;101625.25;4983136;28;20030;-70
2024/02/19 04:42:26;;;;;;;25.95;15.23;;;;;;;6.02;100.00;101619.16;4990875;28;20041;-69
2024/02/19 04:44:51;;;;;;;28.35;15.70;;;;;;;5.95;100.00;101610.06;4991921;28;20057;-69
2024/02/19 04:47:17;;;;;;;27.67;16.10;;;;;;;6.00;100.00;101623.25;4990841;28;20034;-69
2024/02/19 04:49:43;;;;;;;24.85;14.60;;;;;;;5.96;100.00;101632.34;4990831;28;20038;-69
2024/02/19 04:52:08;;;;;;;33.50;15.75;;;;;;;5.92;100.00;101626.88;4990597;28;20053;-72
2024/02/19 04:54:34;;;;;;;28.17;15.55;;;;;;;5.97;100.00;101638.41;4990514;28;20038;-69
2024/02/19 04:56:59;;;;;;;28.83;15.38;;;;;;;5.35;100.00;101541.56;4990368;28;20172;-69
2024/02/19 04:59:25;;;;;;;28.00;14.75;;;;;;;5.86;100.00;101645.28;4990452;28;20026;-72
2024/02/19 05:01:53;;;;;;;27.13;14.50;;;;;;;5.89;100.00;101650.63;4990190;28;20509;-69
2024/02/19 05:04:18;;;;;;;33.70;17.42;;;;;;;5.88;100.00;101645.38;4990588;28;20092;-69
2024/02/19 05:06:44;;;;;;;32.45;17.63;;;;;;;5.91;100.00;101643.94;4990542;28;20125;-69
2024/02/19 05:09:10;;;;;;;32.15;16.15;;;;;;;5.94;100.00;101650.97;4991148;28;20493;-69
2024/02/19 05:11:36;;;;;;;33.28;16.48;;;;;;;5.41;100.00;101559.97;4990700;28;20038;-69
2024/02/19 05:14:02;;;;;;;30.38;16.08;;;;;;;5.91;100.00;101641.38;4983034;28;20052;-70
2024/02/19 05:16:27;;;;;;;34.80;18.38;;;;;;;5.38;100.00;101564.84;4990017;28;20046;-69
2024/02/19 05:18:53;;;;;;;37.20;20.02;;;;;;;5.81;100.00;101638.91;4990171;28;20109;-69
2024/02/19 05:21:18;;;;;;;32.78;18.58;;;;;;;5.85;100.00;101655.41;4990201;28;20089;-69
2024/02/19 05:23:45;;;;;;;33.50;18.23;;;;;;;5.85;100.00;101647.72;4990182;28;20105;-69
2024/02/19 05:26:10;;;;;;;27.88;16.23;;;;;;;5.81;100.00;101650.06;4989076;28;20034;-69
2024/02/19 05:28:37;;;;;;;35.55;17.30;;;;;;;5.79;100.00;101655.84;4990203;28;20033;-69
2024/02/19 05:31:03;;;;;;;33.40;16.30;;;;;;;5.83;100.00;101652.72;4990617;28;20117;-70
2024/02/19 05:33:29;;;;;;;29.17;15.68;;;;;;;5.85;100.00;101655.41;4989970;28;20129;-72
2024/02/19 05:35:55;;;;;;;28.73;15.70;;;;;;;5.89;100.00;101654.88;4990125;28;20034;-69
2024/02/19 05:38:20;;;;;;;30.25;16.05;;;;;;;5.94;100.00;101669.81;4954848;28;20053;-69
2024/02/19 05:40:46;;;;;;;28.42;16.33;;;;;;;5.99;100.00;101665.97;4986767;28;20038;-69
2024/02/19 05:43:12;;;;;;;28.38;17.02;;;;;;;5.92;100.00;101638.06;4990122;28;20037;-69
2024/02/19 05:45:37;;;;;;;28.77;16.48;;;;;;;6.14;100.00;101663.66;4982463;28;20123;-70
2024/02/19 05:48:03;;;;;;;30.33;16.00;;;;;;;6.11;100.00;101654.84;4990131;28;20038;-69
2024/02/19 05:50:30;;;;;;;33.78;17.27;;;;;;;6.12;100.00;101651.50;4989855;28;20531;-69
2024/02/19 05:52:56;;;;;;;30.60;17.55;;;;;;;6.21;100.00;101667.53;4990147;28;20034;-69
2024/02/19 05:55:21;;;;;;;31.05;16.80;;;;;;;6.22;100.00;101658.16;4990168;28;20474;-69
2024/02/19 05:57:47;;;;;;;37.72;18.38;;;;;;;6.14;100.00;101642.22;4990552;28;20053;-69
2024/02/19 06:00:16;;;;;;;32.33;17.38;;;;;;;6.23;100.00;101660.88;4989824;28;20101;-69
2024/02/19 06:02:42;;;;;;;33.77;16.93;;;;;;;6.28;100.00;101674.00;4990129;28;20433;-70
2024/02/19 06:05:09;;;;;;;29.23;16.25;;;;;;;5.98;100.00;101611.97;4985986;28;20273;-69
2024/02/19 06:07:36;;;;;;;31.02;17.42;;;;;;;6.24;100.00;101665.22;4979566;28;20421;-69
2024/02/19 06:10:03;;;;;;;34.05;17.02;;;;;;;6.28;100.00;101674.00;4989504;28;20417;-69
2024/02/19 06:12:28;;;;;;;34.50;17.67;;;;;;;6.13;100.00;101679.81;4957731;28;20082;-69
2024/02/19 06:14:54;;;;;;;31.85;15.30;;;;;;;6.12;100.00;101678.00;4958337;28;20097;-72
2024/02/19 06:17:19;;;;;;;27.67;15.45;;;;;;;6.09;100.00;101676.88;4953415;28;20062;-69
2024/02/19 06:19:45;;;;;;;30.35;16.63;;;;;;;5.87;100.00;101648.72;4948760;29;20047;-69
2024/02/19 06:22:12;;;;;;;28.63;15.70;;;;;;;5.47;100.00;101596.28;4948605;29;20071;-69
2024/02/19 06:24:37;;;;;;;28.40;16.52;;;;;;;5.52;100.00;101599.19;4959570;28;20043;-69
2024/02/19 06:27:03;;;;;;;29.48;16.40;;;;;;;6.04;100.00;101667.97;4949744;28;20050;-70
2024/02/19 06:29:29;;;;;;;33.95;16.98;;;;;;;6.01;100.00;101663.50;4951828;29;20485;-71
2024/02/19 06:31:55;;;;;;;30.70;16.05;;;;;;;5.92;100.00;101653.44;4951537;29;20047;-69
2024/02/19 06:34:21;;;;;;;31.15;17.42;;;;;;;6.03;100.00;101686.69;4952342;29;20899;-71
2024/02/19 06:36:47;;;;;;;31.10;17.10;;;;;;;5.97;100.00;101679.41;4951810;29;20043;-70
2024/02/19 06:39:12;;;;;;;27.70;16.25;;;;;;;5.50;100.00;101598.19;4951397;29;20047;-70
2024/02/19 06:41:38;;;;;;;28.63;15.80;;;;;;;5.85;100.00;101658.88;4951337;29;20090;-70
2024/02/19 06:44:05;;;;;;;31.05;16.95;;;;;;;5.90;100.00;101674.59;4953800;29;20106;-69
2024/02/19 06:46:30;;;;;;;30.10;15.63;;;;;;;5.84;100.00;101664.75;4955330;28;20466;-73
2024/02/19 06:48:59;;;;;;;27.23;15.95;;;;;;;5.94;100.00;101679.16;4954414;28;20094;-69
2024/02/19 06:51:25;;;;;;;27.87;15.43;;;;;;;5.99;100.00;101677.88;4968802;28;20046;-69
2024/02/19 06:53:50;;;;;;;28.92;16.80;;;;;;;5.96;100.00;101677.63;4952626;28;20307;-69
2024/02/19 06:56:16;;;;;;;30.48;16.77;;;;;;;5.81;100.00;101655.19;4953993;28;20031;-69
2024/02/19 06:58:41;;;;;;;32.15;17.95;;;;;;;6.01;100.00;101678.88;4954717;28;20109;-69
2024/02/19 07:01:07;;;;;;;29.60;17.40;;;;;;;5.99;100.00;101671.09;4954071;28;20046;-69
2024/02/19 07:03:32;;;;;;;32.30;17.65;;;;;;;5.93;100.00;101659.44;4953073;29;20066;-69
2024/02/19 07:05:58;;;;;;;34.30;17.55;;;;;;;6.04;100.00;101675.66;4951473;28;20043;-69
2024/02/19 07:08:25;;;;;;;37.63;18.10;;;;;;;6.07;100.00;101673.31;4953742;28;20069;-70
2024/02/19 07:10:52;;;;;;;37.28;18.85;;;;;;;5.85;100.00;101633.22;4954110;28;20031;-69
2024/02/19 07:13:17;;;;;;;33.95;18.70;;;;;;;6.15;100.00;101660.28;4954234;28;20043;-69
2024/02/19 07:15:43;;;;;;;29.52;16.95;;;;;;;6.21;100.00;101659.84;4953911;28;20385;-70
2024/02/19 07:18:08;;;;;;;31.33;16.83;;;;;;;6.29;100.00;101671.56;4992464;28;20082;-69
2024/02/19 07:20:34;;;;;;;32.88;16.50;;;;;;;6.17;100.00;101645.03;4990569;28;20114;-70
2024/02/19 07:23:00;;;;;;;32.47;18.33;;;;;;;6.32;100.00;101655.53;4992335;28;20486;-70
2024/02/19 07:25:25;;;;;;;55.05;30.83;;;;;;;5.96;100.00;101578.53;4993184;28;20026;-70
2024/02/19 07:27:51;;;;;;;71.75;47.58;;;;;;;6.30;100.00;101655.38;4992577;28;20088;-69
2024/02/19 07:30:16;;;;;;;49.80;32.42;;;;;;;6.22;100.00;101658.16;4992656;28;20482;-68
2024/02/19 07:32:42;;;;;;;40.22;23.38;;;;;;;6.21;100.00;101649.59;4992257;28;20088;-69
2024/02/19 07:35:08;;;;;;;31.20;17.00;;;;;;;6.26;100.00;101647.38;4992583;28;20457;-69
2024/02/19 07:37:34;;;;;;;29.42;17.08;;;;;;;6.27;100.00;101650.03;4992973;28;20033;-69
2024/02/19 07:39:59;;;;;;;29.30;16.17;;;;;;;5.50;100.00;101509.41;4992233;28;20030;-69
2024/02/19 07:42:25;;;;;;;31.13;17.42;;;;;;;6.23;100.00;101629.19;4992487;28;20093;-70
2024/02/19 07:44:51;;;;;;;29.30;17.02;;;;;;;6.41;100.00;101647.59;4992071;28;20049;-69
2024/02/19 07:47:17;;;;;;;35.03;17.65;;;;;;;6.43;100.00;101640.88;4992660;28;20030;-70
2024/02/19 07:49:43;;;;;;;31.48;17.92;;;;;;;6.40;100.00;101641.56;4952429;28;20038;-71
2024/02/19 07:52:12;;;;;;;33.10;17.42;;;;;;;6.50;100.00;101648.25;4991950;28;20493;-68
2024/02/19 07:54:37;;;;;;;32.05;17.35;;;;;;;6.56;100.00;101647.81;4992085;28;20038;-69
2024/02/19 07:57:03;;;;;;;35.20;17.42;;;;;;;6.64;100.00;101650.16;4992019;28;20034;-69
2024/02/19 07:59:29;;;;;;;34.88;17.75;;;;;;;6.63;100.00;101650.06;4992022;28;20030;-69
2024/02/19 08:01:54;;;;;;;32.05;16.52;;;;;;;6.66;100.00;101640.00;4992008;28;20056;-69
2024/02/19 08:04:24;;;;;;;34.13;17.55;;;;;;;6.61;100.00;101629.41;4991563;28;20034;-69
2024/02/19 08:06:50;;;;;;;33.45;16.40;;;;;;;6.78;100.00;101643.44;4991624;28;20117;-70
2024/02/19 08:09:17;;;;;;;33.28;17.15;;;;;;;6.88;100.00;101639.84;4991795;28;20030;-70
2024/02/19 08:11:43;;;;;;;29.38;16.73;;;;;;;6.85;100.00;101628.47;4991656;28;20023;-70
2024/02/19 08:14:08;;;;;;;33.65;17.85;;;;;;;6.97;100.00;101640.50;4991112;28;20085;-70
2024/02/19 08:16:34;;;;;;;34.75;18.13;;;;;;;6.86;100.00;101651.69;4991290;28;20042;-70
2024/02/19 08:18:59;;;;;;;31.83;17.27;;;;;;;7.00;100.00;101644.94;4979810;28;20074;-69
2024/02/19 08:21:25;;;;;;;31.63;16.98;;;;;;;7.05;100.00;101653.88;4991344;28;20035;-70
2024/02/19 08:23:50;;;;;;;30.20;15.85;;;;;;;7.04;100.00;101646.97;4991162;28;20077;-69
2024/02/19 08:26:17;;;;;;;34.10;16.67;;;;;;;7.08;100.00;101645.50;4991424;28;20030;-69
2024/02/19 08:28:43;;;;;;;30.27;16.77;;;;;;;6.73;100.00;101572.94;4991639;28;20406;-70
2024/02/19 08:31:10;;;;;;;33.45;17.23;;;;;;;7.07;100.00;101651.41;4991793;28;20038;-69
2024/02/19 08:33:35;;;;;;;29.20;16.73;;;;;;;7.01;100.00;101641.59;4991537;28;20042;-69
2024/02/19 08:36:01;;;;;;;29.17;16.45;;;;;;;7.09;100.00;101635.34;4990879;28;20057;-70
2024/02/19 08:38:28;;;;;;;30.98;15.48;;;;;;;7.18;100.00;101645.34;4990062;28;20100;-70
2024/02/19 08:40:54;;;;;;;30.20;16.42;;;;;;;7.03;100.00;101604.09;4991135;28;20066;-69
2024/02/19 08:43:20;;;;;;;29.58;16.38;;;;;;;7.23;100.00;101632.84;4990763;28;20504;-70
2024/02/19 08:45:46;;;;;;;28.90;15.75;;;;;;;7.36;100.00;101637.13;4991844;28;20117;-69
2024/02/19 08:48:12;;;;;;;30.95;18.17;;;;;;;6.90;100.00;101544.97;4990808;28;20129;-69
2024/02/19 08:50:38;;;;;;;32.40;16.15;;;;;;;7.45;100.00;101636.09;4989684;28;20121;-70
2024/02/19 08:53:04;;;;;;;26.25;15.43;;;;;;;7.45;100.00;101640.31;4982898;28;20064;-70
2024/02/19 08:55:30;;;;;;;26.65;14.80;;;;;;;7.34;100.00;101619.06;4990913;28;20140;-69
2024/02/19 08:57:56;;;;;;;29.40;15.88;;;;;;;7.23;100.00;101607.16;4991042;28;20030;-69
2024/02/19 09:00:23;;;;;;;29.45;14.63;;;;;;;6.99;100.00;101558.47;4991130;28;20041;-69
2024/02/19 09:02:49;;;;;;;31.65;16.05;;;;;;;7.51;100.00;101634.72;4990305;28;20049;-69
2024/02/19 09:05:19;;;;;;;30.50;15.43;;;;;;;7.40;100.00;101624.63;4990760;28;20030;-70
2024/02/19 09:07:45;;;;;;;31.50;15.68;;;;;;;7.45;100.00;101625.81;4986925;28;20494;-69
2024/02/19 09:10:10;;;;;;;29.90;15.32;;;;;;;7.40;100.00;101621.13;4991021;28;20041;-70
2024/02/19 09:12:36;;;;;;;27.90;16.33;;;;;;;7.41;100.00;101638.34;4989881;28;20114;-69
2024/02/19 09:15:04;;;;;;;29.20;16.00;;;;;;;7.31;100.00;101629.09;4990622;28;20519;-69
2024/02/19 09:17:29;;;;;;;30.27;15.77;;;;;;;7.01;100.00;101574.84;4990527;28;20104;-69
2024/02/19 09:19:56;;;;;;;26.60;15.07;;;;;;;7.37;100.00;101641.50;4983144;28;20453;-72
2024/02/19 09:22:22;;;;;;;28.13;15.70;;;;;;;7.35;100.00;101632.78;4983346;28;20507;-69
2024/02/19 09:24:48;;;;;;;30.00;16.00;;;;;;;7.31;100.00;101617.94;4990428;28;20039;-69
2024/02/19 09:27:14;;;;;;;29.63;16.35;;;;;;;6.73;100.00;101516.47;4990235;28;20034;-69
2024/02/19 09:29:41;;;;;;;33.47;16.73;;;;;;;7.24;100.00;101596.06;4990195;28;20545;-70
2024/02/19 09:32:07;;;;;;;32.60;16.23;;;;;;;7.04;100.00;101569.94;4990088;28;20173;-68
2024/02/19 09:34:33;;;;;;;34.92;17.85;;;;;;;7.36;100.00;101632.88;4964985;28;20125;-70
2024/02/19 09:37:00;;;;;;;31.88;16.77;;;;;;;7.32;100.00;101619.75;4991110;28;20026;-69
2024/02/19 09:39:27;;;;;;;30.80;16.35;;;;;;;7.37;100.00;101629.53;4990351;28;20176;-68
2024/02/19 09:41:53;;;;;;;27.95;15.88;;;;;;;7.36;100.00;101629.44;4981771;28;20053;-70
2024/02/19 09:44:18;;;;;;;35.75;17.92;;;;;;;7.35;100.00;101630.22;4990065;28;20026;-69
2024/02/19 09:46:45;;;;;;;31.20;16.33;;;;;;;7.41;100.00;101623.84;4990716;28;20029;-69
2024/02/19 09:49:13;;;;;;;24.75;14.80;;;;;;;7.28;100.00;101604.09;4990143;28;20023;-69
2024/02/19 09:51:54;;;;;;;25.58;14.88;;;;;;;7.36;100.00;101620.03;4990178;28;20026;-69
2024/02/19 09:54:21;;;;;;;30.92;15.90;;;;;;;7.33;100.00;101618.94;4990155;28;20034;-69
2024/02/19 09:56:50;;;;;;;26.55;15.70;;;;;;;7.29;100.00;101600.75;4989742;28;20030;-70
2024/02/19 09:59:16;;;;;;;27.17;14.82;;;;;;;7.36;100.00;101620.03;4981186;28;20099;-69
2024/02/19 10:01:42;;;;;;;32.50;14.88;;;;;;;7.27;100.00;101602.31;4992507;28;20105;-69
2024/02/19 10:04:10;;;;;;;23.90;14.07;;;;;;;7.37;100.00;101610.66;4994181;28;20065;-72
2024/02/19 10:06:36;;;;;;;26.17;13.52;;;;;;;7.26;100.00;101582.56;4994125;28;20061;-71
2024/02/19 10:09:06;;;;;;;27.13;14.02;;;;;;;7.47;100.00;101610.50;4993895;28;20495;-68
2024/02/19 10:11:38;;;;;;;27.83;14.05;;;;;;;7.55;100.00;101601.63;4994298;28;20046;-69
2024/02/19 10:14:04;;;;;;;25.63;13.43;;;;;;;7.64;100.00;101603.03;4994255;28;20420;-69
2024/02/19 10:16:30;;;;;;;25.40;14.80;;;;;;;7.69;100.00;101597.41;4993839;28;20051;-69
2024/02/19 10:19:06;;;;;;;26.23;14.25;;;;;;;7.67;100.00;101581.00;4993246;28;20045;-70
2024/02/19 10:21:32;;;;;;;25.45;13.45;;;;;;;7.75;100.00;101597.81;4993578;28;20423;-69
2024/02/19 10:23:57;;;;;;;23.75;14.52;;;;;;;7.61;100.00;101575.44;4993647;28;20030;-69
2024/02/19 10:26:23;;;;;;;27.08;14.75;;;;;;;7.76;100.00;101588.41;4993418;28;20401;-70
2024/02/19 10:28:54;;;;;;;23.90;14.38;;;;;;;7.66;100.00;101579.22;4993915;28;20034;-70
2024/02/19 10:31:20;;;;;;;31.88;15.27;;;;;;;7.76;100.00;101583.28;4993229;28;20084;-69
2024/02/19 10:33:46;;;;;;;29.63;15.32;;;;;;;7.73;100.00;101581.41;4993717;28;20383;-68
2024/02/19 10:36:15;;;;;;;32.90;15.07;;;;;;;7.57;100.00;101548.66;4933093;29;20053;-70
2024/02/19 10:38:42;;;;;;;25.77;14.07;;;;;;;7.35;100.00;101522.31;4933033;29;20055;-70
2024/02/19 10:41:07;;;;;;;25.83;13.77;;;;;;;7.56;100.00;101552.03;4932819;29;20076;-69
2024/02/19 10:43:33;;;;;;;22.23;12.90;;;;;;;7.69;100.00;101569.16;4933081;29;20532;-69
2024/02/19 10:45:59;;;;;;;22.45;13.25;;;;;;;7.27;100.00;101479.03;4932933;29;20087;-70
2024/02/19 10:48:25;;;;;;;19.42;11.50;;;;;;;7.76;100.00;101560.16;4917317;29;20043;-70
2024/02/19 10:50:51;;;;;;;20.65;12.68;;;;;;;7.37;100.00;101487.34;4933202;29;20636;-70
2024/02/19 10:53:18;;;;;;;28.83;14.57;;;;;;;7.72;100.00;101535.91;4932646;29;20122;-71
2024/02/19 10:55:45;;;;;;;22.33;12.68;;;;;;;7.25;100.00;101470.34;4948593;29;20245;-70
2024/02/19 10:58:15;;;;;;;23.80;12.07;;;;;;;7.50;100.00;101520.78;4932462;29;20051;-70
2024/02/19 11:00:42;;;;;;;18.20;11.63;;;;;;;7.61;100.00;101548.09;4932504;29;20036;-69
2024/02/19 11:03:09;;;;;;;18.50;10.63;;;;;;;7.68;100.00;101557.06;4932594;29;20046;-69
2024/02/19 11:05:39;;;;;;;18.73;11.00;;;;;;;7.68;100.00;101536.50;4932572;29;20150;-69